Time;durP1;ratioP1;P1;durP2;ratioP2;P2;SDS_P1;SDS_P2;PMS_P1;PMS_P2;Temp;Humidity;BMP_temperature;BMP_pressure;BME280_temperature;BME280_humidity;BME280_pressure;Samples;Min_cycle;Max_cycle;Signal;HPM_P1;HPM_P2
2022/11/17 00:00:31;;;;;;;10.03;4.00;;;;;;;;;;5021012;28;20211;-78
2022/11/17 00:02:57;;;;;;;7.50;4.10;;;;;;;;;;5054697;28;20180;-77
2022/11/17 00:05:23;;;;;;;10.67;4.17;;;;;;;;;;5020666;28;20191;-77
2022/11/17 00:07:49;;;;;;;7.03;4.00;;;;;;;;;;5041766;28;20271;-77
2022/11/17 00:10:16;;;;;;;10.50;4.20;;;;;;;;;;5037702;28;20210;-77
2022/11/17 00:15:26;;;;;;;11.93;4.10;;;;;;;;;;5074745;28;20194;-87
2022/11/17 00:21:17;;;;;;;9.03;4.20;;;;;;;;;;5074233;28;20180;-85
2022/11/17 00:23:48;;;;;;;9.97;4.67;;;;;;;;;;5074791;28;20218;-87
2022/11/17 00:26:17;;;;;;;8.77;4.30;;;;;;;;;;5056979;28;20192;-87
2022/11/17 00:28:43;;;;;;;8.07;4.00;;;;;;;;;;5054666;28;20215;-88
2022/11/17 00:34:04;;;;;;;10.10;4.10;;;;;;;;;;5054378;28;20183;-88
2022/11/17 00:36:35;;;;;;;10.47;4.17;;;;;;;;;;5036696;28;20191;-88
2022/11/17 00:39:01;;;;;;;12.27;3.97;;;;;;;;;;5036467;28;20179;-88
2022/11/17 00:41:27;;;;;;;12.13;4.67;;;;;;;;;;5049674;28;20215;-79
2022/11/17 00:43:53;;;;;;;8.50;4.23;;;;;;;;;;5021998;28;20288;-80
2022/11/17 00:46:19;;;;;;;10.10;4.50;;;;;;;;;;5068842;28;20251;-88
2022/11/17 00:48:46;;;;;;;10.43;4.57;;;;;;;;;;5056818;28;20270;-79
2022/11/17 00:51:12;;;;;;;10.63;4.67;;;;;;;;;;5073079;28;20183;-79
2022/11/17 00:53:37;;;;;;;9.43;4.37;;;;;;;;;;5072779;28;20209;-79
2022/11/17 00:56:04;;;;;;;10.77;5.07;;;;;;;;;;5072865;28;20214;-77
2022/11/17 00:58:30;;;;;;;10.83;4.67;;;;;;;;;;5049746;28;20192;-76
2022/11/17 01:00:56;;;;;;;8.90;5.10;;;;;;;;;;5052606;28;20245;-77
2022/11/17 01:03:22;;;;;;;9.60;4.47;;;;;;;;;;5053123;28;20187;-77
2022/11/17 01:05:48;;;;;;;14.80;5.17;;;;;;;;;;5053048;28;20172;-77
2022/11/17 01:08:14;;;;;;;13.80;5.10;;;;;;;;;;5019937;28;20176;-77
2022/11/17 01:10:40;;;;;;;11.27;4.97;;;;;;;;;;5019360;28;20188;-77
2022/11/17 01:13:06;;;;;;;12.27;5.40;;;;;;;;;;5036257;28;20187;-78
2022/11/17 01:15:32;;;;;;;12.50;5.03;;;;;;;;;;5053644;28;20184;-77
2022/11/17 01:17:58;;;;;;;13.07;4.80;;;;;;;;;;5035958;28;20329;-77
2022/11/17 01:20:24;;;;;;;13.83;5.07;;;;;;;;;;5019491;28;20290;-87
2022/11/17 01:22:53;;;;;;;12.07;4.80;;;;;;;;;;5019730;28;20183;-79
2022/11/17 01:25:19;;;;;;;11.13;5.00;;;;;;;;;;5035871;28;20237;-79
2022/11/17 01:27:45;;;;;;;11.73;4.77;;;;;;;;;;5019801;28;20191;-79
2022/11/17 01:30:11;;;;;;;11.30;4.67;;;;;;;;;;5039425;28;20203;-79
2022/11/17 01:32:37;;;;;;;9.20;4.23;;;;;;;;;;5026447;28;20245;-79
2022/11/17 01:35:03;;;;;;;7.57;3.57;;;;;;;;;;5073213;28;20183;-79
2022/11/17 01:37:29;;;;;;;8.03;3.40;;;;;;;;;;5077607;28;20243;-79
2022/11/17 01:39:55;;;;;;;9.20;3.97;;;;;;;;;;5058882;28;20266;-77
2022/11/17 01:42:22;;;;;;;10.40;3.77;;;;;;;;;;5056365;28;20184;-77
2022/11/17 01:44:53;;;;;;;8.07;3.90;;;;;;;;;;5057235;28;20251;-77
2022/11/17 01:47:28;;;;;;;7.93;4.00;;;;;;;;;;5056428;28;20182;-77
2022/11/17 01:49:56;;;;;;;11.27;4.43;;;;;;;;;;5063288;28;20175;-77
2022/11/17 01:52:23;;;;;;;8.50;4.20;;;;;;;;;;5059798;28;20179;-88
2022/11/17 01:54:49;;;;;;;8.73;3.57;;;;;;;;;;5077488;28;20250;-79
2022/11/17 01:57:19;;;;;;;8.33;3.60;;;;;;;;;;5059553;28;20190;-79
2022/11/17 01:59:47;;;;;;;8.07;3.30;;;;;;;;;;5077041;28;20175;-79
2022/11/17 02:02:13;;;;;;;9.83;3.47;;;;;;;;;;5059243;28;20185;-79
2022/11/17 02:04:50;;;;;;;6.60;3.20;;;;;;;;;;5076943;28;20183;-79
2022/11/17 02:07:24;;;;;;;5.07;3.10;;;;;;;;;;5064777;28;20207;-79
2022/11/17 02:09:51;;;;;;;5.30;3.20;;;;;;;;;;5056976;28;20171;-79
2022/11/17 02:12:18;;;;;;;8.07;2.93;;;;;;;;;;5039366;28;20198;-80
2022/11/17 02:14:44;;;;;;;6.87;2.80;;;;;;;;;;5056930;28;20215;-80
2022/11/17 02:17:10;;;;;;;5.80;2.80;;;;;;;;;;5039198;28;20172;-80
2022/11/17 02:19:37;;;;;;;4.10;2.80;;;;;;;;;;5056735;28;20259;-80
2022/11/17 02:22:03;;;;;;;5.30;3.00;;;;;;;;;;5022679;28;20215;-80
2022/11/17 02:24:52;;;;;;;6.40;2.97;;;;;;;;;;5067477;28;20179;-80
2022/11/17 02:27:18;;;;;;;7.37;2.80;;;;;;;;;;5076701;28;20167;-80
2022/11/17 02:29:56;;;;;;;5.07;2.40;;;;;;;;;;5076707;28;20229;-79
2022/11/17 02:32:42;;;;;;;5.17;2.57;;;;;;;;;;5076584;28;20199;-79
2022/11/17 02:35:26;;;;;;;6.73;2.77;;;;;;;;;;5076194;28;20175;-79
2022/11/17 02:38:06;;;;;;;5.77;2.60;;;;;;;;;;5076661;28;20175;-79
2022/11/17 02:40:49;;;;;;;5.10;2.40;;;;;;;;;;5056867;28;20221;-79
2022/11/17 02:46:10;;;;;;;4.00;2.20;;;;;;;;;;5036552;28;20184;-87
2022/11/17 02:48:38;;;;;;;3.63;2.07;;;;;;;;;;5018967;28;20271;-88
2022/11/17 02:51:05;;;;;;;6.23;2.50;;;;;;;;;;5036749;28;20244;-88
2022/11/17 02:53:32;;;;;;;5.10;2.57;;;;;;;;;;5036474;28;20176;-88
2022/11/17 02:55:59;;;;;;;5.90;2.50;;;;;;;;;;5036344;28;20207;-87
2022/11/17 02:58:25;;;;;;;5.23;2.63;;;;;;;;;;5060606;28;20199;-87
2022/11/17 03:00:54;;;;;;;7.87;2.67;;;;;;;;;;5041851;28;20319;-88
2022/11/17 03:03:46;;;;;;;5.23;2.77;;;;;;;;;;5058376;28;20179;-79
2022/11/17 03:06:26;;;;;;;7.07;2.50;;;;;;;;;;5041661;28;20192;-79
2022/11/17 03:08:55;;;;;;;6.47;3.03;;;;;;;;;;5076018;28;20317;-80
2022/11/17 03:11:26;;;;;;;7.03;2.90;;;;;;;;;;5057993;28;20191;-77
2022/11/17 03:13:58;;;;;;;5.30;2.80;;;;;;;;;;5057200;28;20175;-77
2022/11/17 03:16:24;;;;;;;4.63;2.67;;;;;;;;;;5057930;28;20275;-78
2022/11/17 03:18:59;;;;;;;4.47;3.13;;;;;;;;;;5058008;28;20274;-77
2022/11/17 03:21:25;;;;;;;4.97;2.27;;;;;;;;;;5044230;28;20195;-77
2022/11/17 03:24:03;;;;;;;3.97;2.30;;;;;;;;;;5037865;28;20183;-77
2022/11/17 03:26:34;;;;;;;4.00;2.00;;;;;;;;;;5038031;28;20185;-77
2022/11/17 03:29:01;;;;;;;3.67;2.10;;;;;;;;;;5037850;28;20172;-77
2022/11/17 03:31:29;;;;;;;3.80;2.30;;;;;;;;;;5038735;28;20184;-77
2022/11/17 03:33:55;;;;;;;6.17;2.50;;;;;;;;;;5055369;28;20202;-77
2022/11/17 03:36:28;;;;;;;2.77;1.97;;;;;;;;;;5037855;28;20184;-87
2022/11/17 03:38:59;;;;;;;4.60;2.47;;;;;;;;;;5037903;28;20211;-88
2022/11/17 03:41:28;;;;;;;6.13;3.00;;;;;;;;;;5037806;28;20222;-88
2022/11/17 03:43:55;;;;;;;7.10;2.90;;;;;;;;;;5037617;28;20215;-89
2022/11/17 03:46:22;;;;;;;4.60;2.50;;;;;;;;;;5037681;28;20180;-88
2022/11/17 03:48:53;;;;;;;3.80;2.33;;;;;;;;;;5038361;28;20287;-77
2022/11/17 03:51:27;;;;;;;4.40;2.30;;;;;;;;;;5036714;28;20179;-79
2022/11/17 03:53:53;;;;;;;6.20;2.43;;;;;;;;;;5055019;28;20226;-79
2022/11/17 03:56:19;;;;;;;3.37;2.50;;;;;;;;;;5054937;28;20180;-79
2022/11/17 03:58:49;;;;;;;4.37;2.20;;;;;;;;;;5054967;28;20231;-79
2022/11/17 04:01:15;;;;;;;6.77;2.40;;;;;;;;;;5054269;28;20233;-79
2022/11/17 04:03:41;;;;;;;3.37;2.07;;;;;;;;;;5054151;28;20214;-79
2022/11/17 04:06:07;;;;;;;4.63;2.33;;;;;;;;;;5055211;28;20199;-79
2022/11/17 04:08:33;;;;;;;3.33;2.13;;;;;;;;;;5037494;28;20176;-79
2022/11/17 04:16:28;;;;;;;4.57;2.60;;;;;;;;;;5040443;28;20248;-79
2022/11/17 04:18:54;;;;;;;3.33;2.20;;;;;;;;;;5020975;28;20180;-79
2022/11/17 04:21:20;;;;;;;5.10;2.30;;;;;;;;;;5037103;28;20215;-79
2022/11/17 04:23:46;;;;;;;4.60;2.20;;;;;;;;;;5068108;28;20195;-79
2022/11/17 04:28:57;;;;;;;3.33;2.10;;;;;;;;;;5075197;28;20178;-77
2022/11/17 04:31:24;;;;;;;3.27;2.30;;;;;;;;;;5040733;28;20191;-77
2022/11/17 04:33:51;;;;;;;4.20;2.20;;;;;;;;;;5057473;28;20270;-77
2022/11/17 04:36:18;;;;;;;3.97;2.50;;;;;;;;;;5056826;28;20183;-77
2022/11/17 04:38:49;;;;;;;3.67;2.23;;;;;;;;;;5057254;28;20179;-77
2022/11/17 04:44:01;;;;;;;4.47;2.50;;;;;;;;;;5034647;28;20279;-88
2022/11/17 04:46:29;;;;;;;3.67;2.47;;;;;;;;;;5017772;28;20183;-88
2022/11/17 04:48:56;;;;;;;4.07;2.80;;;;;;;;;;5034740;28;20177;-88
2022/11/17 04:51:22;;;;;;;4.90;2.87;;;;;;;;;;5017773;28;20197;-88
2022/11/17 04:53:48;;;;;;;4.17;2.70;;;;;;;;;;5017059;28;20230;-88
2022/11/17 04:56:15;;;;;;;5.30;3.20;;;;;;;;;;5033478;23;20235;-81
2022/11/17 04:58:41;;;;;;;4.47;2.90;;;;;;;;;;5056382;28;20179;-77
2022/11/17 05:01:11;;;;;;;4.97;3.13;;;;;;;;;;5056448;28;20263;-77
2022/11/17 05:03:38;;;;;;;6.73;2.67;;;;;;;;;;5053429;28;20207;-77
2022/11/17 05:06:04;;;;;;;6.37;3.03;;;;;;;;;;5056352;28;20179;-78
2022/11/17 05:08:30;;;;;;;4.83;2.70;;;;;;;;;;5056738;28;20179;-80
2022/11/17 05:13:42;;;;;;;4.03;2.60;;;;;;;;;;5074439;28;20256;-80
2022/11/17 05:18:52;;;;;;;3.87;2.43;;;;;;;;;;5059408;28;20244;-77
2022/11/17 05:21:18;;;;;;;5.97;2.60;;;;;;;;;;5036015;28;20199;-77
2022/11/17 05:23:53;;;;;;;3.77;2.40;;;;;;;;;;5037176;28;20180;-77
2022/11/17 05:26:20;;;;;;;3.10;2.50;;;;;;;;;;5037551;28;20175;-78
2022/11/17 05:28:46;;;;;;;3.80;2.30;;;;;;;;;;5073699;28;20210;-77
2022/11/17 05:31:12;;;;;;;3.37;2.60;;;;;;;;;;5036360;28;20187;-77
2022/11/17 05:33:38;;;;;;;5.33;2.60;;;;;;;;;;5036257;28;20248;-77
2022/11/17 05:36:04;;;;;;;5.10;2.50;;;;;;;;;;5036451;28;20234;-77
2022/11/17 05:38:30;;;;;;;3.93;2.70;;;;;;;;;;5036246;28;20183;-77
2022/11/17 05:40:56;;;;;;;5.13;2.60;;;;;;;;;;5022491;28;20204;-77
2022/11/17 05:43:22;;;;;;;4.47;2.40;;;;;;;;;;5038460;28;20176;-77
2022/11/17 05:45:48;;;;;;;5.13;2.40;;;;;;;;;;5036481;28;20260;-77
2022/11/17 05:48:14;;;;;;;5.20;2.50;;;;;;;;;;5055950;28;20226;-81
2022/11/17 05:50:40;;;;;;;7.37;2.83;;;;;;;;;;5056247;28;20186;-81
2022/11/17 05:53:06;;;;;;;3.47;2.30;;;;;;;;;;5073677;28;20183;-81
2022/11/17 05:55:32;;;;;;;5.80;2.40;;;;;;;;;;5055924;28;20231;-80
2022/11/17 05:58:01;;;;;;;4.73;2.40;;;;;;;;;;5073510;28;20182;-80
2022/11/17 06:00:27;;;;;;;4.80;2.33;;;;;;;;;;5055378;28;20196;-81
2022/11/17 06:02:56;;;;;;;5.77;2.60;;;;;;;;;;5055782;28;20175;-80
2022/11/17 06:05:22;;;;;;;4.47;2.50;;;;;;;;;;5073479;28;20171;-80
2022/11/17 06:07:50;;;;;;;5.80;2.47;;;;;;;;;;5040200;28;20211;-80
2022/11/17 06:10:16;;;;;;;4.93;2.40;;;;;;;;;;5054749;28;20179;-80
2022/11/17 06:12:42;;;;;;;5.90;2.63;;;;;;;;;;5038586;28;20184;-80
2022/11/17 06:15:08;;;;;;;4.43;2.50;;;;;;;;;;5073043;28;20189;-80
2022/11/17 06:17:37;;;;;;;6.63;3.00;;;;;;;;;;5058832;28;20198;-80
2022/11/17 06:20:06;;;;;;;4.77;2.67;;;;;;;;;;5058891;28;20183;-80
2022/11/17 06:22:33;;;;;;;6.47;2.73;;;;;;;;;;5076888;28;20238;-79
2022/11/17 06:25:00;;;;;;;10.93;3.10;;;;;;;;;;5058848;28;20175;-79
2022/11/17 06:27:26;;;;;;;7.77;3.23;;;;;;;;;;5057120;28;20175;-77
2022/11/17 06:29:52;;;;;;;8.20;3.20;;;;;;;;;;5042720;28;20187;-77
2022/11/17 06:32:19;;;;;;;7.27;3.07;;;;;;;;;;5059397;28;20202;-76
2022/11/17 06:34:45;;;;;;;10.23;3.20;;;;;;;;;;5059534;28;20195;-77
2022/11/17 06:37:12;;;;;;;8.48;4.30;;;;;;;;;;5056007;28;20418;-77
2022/11/17 06:39:38;;;;;;;5.83;3.30;;;;;;;;;;5059371;28;20228;-87
2022/11/17 06:42:04;;;;;;;7.23;3.23;;;;;;;;;;5045448;28;20196;-88
2022/11/17 06:44:30;;;;;;;6.57;2.90;;;;;;;;;;5042041;28;20236;-87
2022/11/17 06:46:56;;;;;;;4.87;2.50;;;;;;;;;;5043247;28;20186;-88
2022/11/17 06:49:22;;;;;;;7.27;2.70;;;;;;;;;;5043112;28;20191;-88
2022/11/17 06:51:48;;;;;;;7.47;2.43;;;;;;;;;;5055883;28;20187;-89
2022/11/17 06:54:14;;;;;;;7.03;2.90;;;;;;;;;;5039360;28;20187;-88
2022/11/17 06:56:40;;;;;;;8.63;2.87;;;;;;;;;;5022104;28;20318;-81
2022/11/17 06:59:06;;;;;;;6.10;2.17;;;;;;;;;;5022381;28;20188;-79
2022/11/17 07:01:32;;;;;;;5.07;2.10;;;;;;;;;;5022392;28;20216;-88
2022/11/17 07:03:58;;;;;;;7.20;2.53;;;;;;;;;;5022067;28;20184;-88
2022/11/17 07:06:24;;;;;;;6.00;2.40;;;;;;;;;;5038665;28;20176;-88
2022/11/17 07:08:50;;;;;;;7.77;2.63;;;;;;;;;;5038821;28;20180;-87
2022/11/17 07:11:16;;;;;;;9.70;2.80;;;;;;;;;;5022475;28;20203;-87
2022/11/17 07:13:42;;;;;;;5.83;2.10;;;;;;;;;;5022147;28;20206;-87
2022/11/17 07:16:10;;;;;;;8.07;2.70;;;;;;;;;;5022159;28;20184;-88
2022/11/17 07:18:37;;;;;;;5.93;2.07;;;;;;;;;;5055206;28;20191;-88
2022/11/17 07:21:04;;;;;;;5.33;2.20;;;;;;;;;;5038390;28;20330;-88
2022/11/17 07:23:30;;;;;;;11.43;2.20;;;;;;;;;;5056068;28;20172;-88
2022/11/17 07:25:57;;;;;;;7.73;1.97;;;;;;;;;;5054677;28;20172;-88
2022/11/17 07:28:23;;;;;;;6.97;1.83;;;;;;;;;;5055730;28;20191;-88
2022/11/17 07:30:49;;;;;;;6.90;2.00;;;;;;;;;;5054852;28;20180;-88
2022/11/17 07:33:15;;;;;;;5.03;1.80;;;;;;;;;;5030730;28;20190;-79
2022/11/17 07:35:41;;;;;;;3.83;1.73;;;;;;;;;;5058076;28;20211;-88
2022/11/17 07:38:07;;;;;;;4.80;1.67;;;;;;;;;;5041371;28;20194;-87
2022/11/17 07:40:33;;;;;;;9.30;2.10;;;;;;;;;;5058691;28;20241;-81
2022/11/17 07:43:00;;;;;;;5.17;1.70;;;;;;;;;;5054926;28;20210;-81
2022/11/17 07:45:27;;;;;;;5.27;1.90;;;;;;;;;;5047432;28;20217;-87
2022/11/17 07:47:57;;;;;;;5.93;2.20;;;;;;;;;;5057437;28;20186;-88
2022/11/17 07:50:23;;;;;;;7.00;2.37;;;;;;;;;;5037326;28;20196;-88
2022/11/17 07:52:50;;;;;;;5.97;2.20;;;;;;;;;;5052380;28;20202;-88
2022/11/17 07:55:17;;;;;;;8.53;2.73;;;;;;;;;;5075107;28;20225;-87
2022/11/17 07:57:43;;;;;;;6.63;2.40;;;;;;;;;;5057489;28;20191;-88
2022/11/17 08:00:09;;;;;;;8.50;2.00;;;;;;;;;;5074449;28;20249;-88
2022/11/17 08:02:35;;;;;;;7.17;2.20;;;;;;;;;;5056915;28;20199;-82
2022/11/17 08:05:01;;;;;;;7.03;1.83;;;;;;;;;;5052463;28;20221;-80
2022/11/17 08:07:27;;;;;;;6.87;2.03;;;;;;;;;;5053567;28;20198;-80
2022/11/17 08:09:53;;;;;;;7.23;2.40;;;;;;;;;;5037122;28;20199;-79
2022/11/17 08:12:19;;;;;;;8.47;2.00;;;;;;;;;;5037623;28;20184;-80
2022/11/17 08:14:45;;;;;;;9.13;2.30;;;;;;;;;;5030992;28;20270;-80
2022/11/17 08:17:11;;;;;;;7.53;2.00;;;;;;;;;;5039902;28;20191;-80
2022/11/17 08:19:37;;;;;;;5.87;1.80;;;;;;;;;;5040778;28;20210;-80
2022/11/17 08:22:03;;;;;;;7.50;2.30;;;;;;;;;;5057630;28;20211;-88
2022/11/17 08:24:29;;;;;;;8.80;1.87;;;;;;;;;;5041415;28;20180;-87
2022/11/17 08:26:55;;;;;;;7.87;1.80;;;;;;;;;;5040375;28;20190;-87
2022/11/17 08:29:21;;;;;;;7.47;1.90;;;;;;;;;;5020729;28;20183;-87
2022/11/17 08:31:47;;;;;;;8.37;1.97;;;;;;;;;;5037564;28;20187;-87
2022/11/17 08:34:13;;;;;;;6.20;1.83;;;;;;;;;;5040799;28;20194;-87
2022/11/17 08:36:39;;;;;;;5.20;1.80;;;;;;;;;;5040470;28;20187;-87
2022/11/17 08:39:05;;;;;;;4.90;1.70;;;;;;;;;;5040158;28;20191;-86
2022/11/17 08:41:31;;;;;;;6.40;1.80;;;;;;;;;;5074201;28;20285;-86
2022/11/17 08:43:57;;;;;;;6.60;2.07;;;;;;;;;;5074143;28;20225;-84
2022/11/17 08:46:25;;;;;;;9.50;1.90;;;;;;;;;;5040008;28;20175;-79
2022/11/17 08:48:51;;;;;;;6.73;1.90;;;;;;;;;;5056940;28;20186;-79
2022/11/17 08:51:17;;;;;;;6.60;1.70;;;;;;;;;;5040503;28;20232;-80
2022/11/17 08:53:43;;;;;;;4.43;1.60;;;;;;;;;;5057079;28;20179;-81
2022/11/17 08:56:12;;;;;;;6.67;1.80;;;;;;;;;;5056394;28;20242;-80
2022/11/17 08:58:44;;;;;;;6.83;1.87;;;;;;;;;;5074027;28;20221;-80
2022/11/17 09:01:11;;;;;;;5.47;1.60;;;;;;;;;;5041496;28;20215;-80
2022/11/17 09:03:37;;;;;;;4.00;1.50;;;;;;;;;;5068313;28;20241;-79
2022/11/17 09:06:04;;;;;;;4.87;1.70;;;;;;;;;;5072543;28;20214;-79
2022/11/17 09:08:31;;;;;;;5.67;1.63;;;;;;;;;;5040014;28;20202;-79
2022/11/17 09:10:57;;;;;;;5.30;1.30;;;;;;;;;;5056343;28;20187;-79
2022/11/17 09:13:23;;;;;;;6.87;1.60;;;;;;;;;;5074080;28;20171;-79
2022/11/17 09:15:49;;;;;;;4.87;1.63;;;;;;;;;;5065195;28;20190;-79
2022/11/17 09:18:15;;;;;;;5.13;1.47;;;;;;;;;;5056211;28;20186;-79
2022/11/17 09:20:42;;;;;;;6.63;1.73;;;;;;;;;;5039387;28;20214;-79
2022/11/17 09:23:08;;;;;;;5.90;1.50;;;;;;;;;;5054942;28;20183;-79
2022/11/17 09:25:34;;;;;;;5.83;1.63;;;;;;;;;;5055915;28;20282;-80
2022/11/17 09:28:00;;;;;;;2.87;1.43;;;;;;;;;;5056508;28;20187;-79
2022/11/17 09:30:26;;;;;;;4.93;1.40;;;;;;;;;;5039694;28;20283;-79
2022/11/17 09:32:52;;;;;;;4.97;1.50;;;;;;;;;;5035622;28;20279;-79
2022/11/17 09:35:18;;;;;;;3.20;1.40;;;;;;;;;;5054843;28;20184;-80
2022/11/17 09:37:44;;;;;;;3.07;1.20;;;;;;;;;;5073982;28;20183;-79
2022/11/17 09:40:15;;;;;;;5.13;1.30;;;;;;;;;;5039231;28;20183;-80
2022/11/17 09:42:41;;;;;;;2.97;1.27;;;;;;;;;;5056537;28;20229;-80
2022/11/17 09:45:22;;;;;;;5.83;1.30;;;;;;;;;;5042060;28;20191;-80
2022/11/17 09:47:48;;;;;;;4.90;1.47;;;;;;;;;;5056140;28;20175;-80
2022/11/17 09:50:14;;;;;;;4.03;1.37;;;;;;;;;;5075377;28;20182;-81
2022/11/17 09:52:49;;;;;;;3.67;1.40;;;;;;;;;;5060289;28;20183;-80
2022/11/17 09:55:27;;;;;;;3.80;1.50;;;;;;;;;;5041753;28;20186;-79
2022/11/17 09:58:16;;;;;;;4.20;1.30;;;;;;;;;;5067901;28;20226;-86
2022/11/17 10:00:43;;;;;;;3.20;1.50;;;;;;;;;;5077521;28;20210;-86
2022/11/17 10:03:15;;;;;;;2.67;1.30;;;;;;;;;;5059520;28;20225;-86
2022/11/17 10:05:42;;;;;;;2.80;1.30;;;;;;;;;;5059508;28;20180;-86
2022/11/17 10:08:11;;;;;;;4.80;1.40;;;;;;;;;;5050994;28;20198;-78
2022/11/17 10:10:44;;;;;;;4.17;1.57;;;;;;;;;;5059077;28;20311;-77
2022/11/17 10:13:29;;;;;;;4.67;1.30;;;;;;;;;;5077158;28;20180;-77
2022/11/17 10:16:01;;;;;;;4.80;1.50;;;;;;;;;;5058167;28;20189;-80
2022/11/17 10:18:28;;;;;;;3.87;1.43;;;;;;;;;;5076937;28;20194;-79
2022/11/17 10:20:54;;;;;;;3.03;1.50;;;;;;;;;;5076444;28;20210;-80
2022/11/17 10:23:21;;;;;;;4.57;1.50;;;;;;;;;;5033676;28;20187;-79
2022/11/17 10:25:52;;;;;;;6.47;1.57;;;;;;;;;;5042603;28;20175;-80
2022/11/17 10:28:26;;;;;;;5.53;1.50;;;;;;;;;;5057450;28;20180;-79
2022/11/17 10:30:53;;;;;;;5.10;1.50;;;;;;;;;;5056876;28;20273;-80
2022/11/17 10:33:31;;;;;;;2.83;1.40;;;;;;;;;;5039537;28;20187;-77
2022/11/17 10:35:58;;;;;;;3.87;1.40;;;;;;;;;;5056870;28;20247;-77
2022/11/17 10:38:27;;;;;;;7.33;1.73;;;;;;;;;;5032526;28;20179;-77
2022/11/17 10:40:54;;;;;;;5.10;1.30;;;;;;;;;;5038712;28;20215;-78
2022/11/17 10:43:30;;;;;;;2.83;1.37;;;;;;;;;;5039426;28;20179;-77
2022/11/17 10:45:58;;;;;;;5.20;1.40;;;;;;;;;;5039205;28;20176;-78
2022/11/17 10:48:26;;;;;;;4.90;1.40;;;;;;;;;;5058474;28;20175;-87
2022/11/17 10:50:52;;;;;;;3.83;1.27;;;;;;;;;;5055447;28;20214;-87
2022/11/17 10:53:37;;;;;;;3.40;1.37;;;;;;;;;;5056619;28;20176;-87
2022/11/17 10:56:21;;;;;;;4.40;1.50;;;;;;;;;;5038738;28;20219;-86
2022/11/17 10:58:59;;;;;;;8.97;1.70;;;;;;;;;;5048603;28;20199;-87
2022/11/17 11:01:36;;;;;;;5.07;1.40;;;;;;;;;;5058459;28;20233;-87
2022/11/17 11:04:03;;;;;;;3.63;1.50;;;;;;;;;;5058635;28;20175;-87
2022/11/17 11:06:30;;;;;;;4.27;1.40;;;;;;;;;;5058604;28;20201;-81
2022/11/17 11:09:05;;;;;;;4.83;1.50;;;;;;;;;;5058787;28;20263;-80
2022/11/17 11:11:48;;;;;;;6.23;1.63;;;;;;;;;;5058002;28;20224;-81
2022/11/17 11:14:30;;;;;;;5.97;1.53;;;;;;;;;;5058731;28;20183;-80
2022/11/17 11:16:56;;;;;;;2.90;1.40;;;;;;;;;;5058494;28;20179;-80
2022/11/17 11:19:22;;;;;;;3.77;1.20;;;;;;;;;;5041276;28;20191;-80
2022/11/17 11:21:50;;;;;;;5.33;1.20;;;;;;;;;;5052444;28;20302;-80
2022/11/17 11:24:31;;;;;;;5.77;1.10;;;;;;;;;;5057427;28;20183;-79
2022/11/17 11:27:04;;;;;;;3.80;1.20;;;;;;;;;;5058105;28;20175;-80
2022/11/17 11:29:33;;;;;;;4.63;1.10;;;;;;;;;;5058267;28;20166;-80
2022/11/17 11:32:11;;;;;;;3.87;1.17;;;;;;;;;;5057612;28;20191;-80
2022/11/17 11:35:03;;;;;;;4.03;1.20;;;;;;;;;;5075666;28;20179;-79
2022/11/17 11:37:35;;;;;;;3.27;1.20;;;;;;;;;;5063796;28;20191;-79
2022/11/17 11:40:15;;;;;;;3.37;1.30;;;;;;;;;;5056830;28;20195;-79
2022/11/17 11:42:47;;;;;;;5.70;1.43;;;;;;;;;;5044341;28;20190;-79
2022/11/17 11:45:16;;;;;;;5.33;1.30;;;;;;;;;;5074525;28;20198;-79
2022/11/17 11:47:51;;;;;;;4.10;1.40;;;;;;;;;;5057565;28;20505;-79
2022/11/17 11:50:22;;;;;;;4.63;1.30;;;;;;;;;;5044590;28;20491;-79
2022/11/17 11:52:51;;;;;;;2.57;1.30;;;;;;;;;;5056918;28;20224;-79
2022/11/17 11:55:21;;;;;;;4.67;1.17;;;;;;;;;;5055658;28;20176;-79
2022/11/17 11:57:51;;;;;;;3.03;1.30;;;;;;;;;;5057312;28;20276;-80
2022/11/17 12:00:18;;;;;;;3.13;1.20;;;;;;;;;;5057601;28;20224;-81
2022/11/17 12:02:50;;;;;;;3.07;1.10;;;;;;;;;;5055974;28;20175;-81
2022/11/17 12:05:19;;;;;;;3.53;1.23;;;;;;;;;;5055088;28;20217;-80
2022/11/17 12:08:04;;;;;;;3.03;1.30;;;;;;;;;;5042353;28;20176;-80
2022/11/17 12:10:49;;;;;;;5.20;1.40;;;;;;;;;;5057315;28;20175;-80
2022/11/17 12:13:16;;;;;;;3.07;1.13;;;;;;;;;;5056690;28;20178;-86
2022/11/17 12:15:42;;;;;;;4.53;1.33;;;;;;;;;;5056951;28;20179;-86
2022/11/17 12:18:18;;;;;;;3.97;1.30;;;;;;;;;;5057155;28;20172;-86
2022/11/17 12:20:54;;;;;;;3.33;1.37;;;;;;;;;;5057185;28;20218;-87
2022/11/17 12:23:41;;;;;;;7.10;1.43;;;;;;;;;;5057150;28;20167;-86
2022/11/17 12:26:07;;;;;;;4.90;1.30;;;;;;;;;;5074338;28;20175;-86
2022/11/17 12:28:40;;;;;;;4.07;1.10;;;;;;;;;;5040405;28;20191;-77
2022/11/17 12:31:32;;;;;;;5.00;1.60;;;;;;;;;;5040042;28;20194;-77
2022/11/17 12:34:01;;;;;;;3.77;1.10;;;;;;;;;;5056460;28;20233;-77
2022/11/17 12:36:30;;;;;;;4.23;1.33;;;;;;;;;;5054163;28;20274;-77
2022/11/17 12:38:56;;;;;;;3.47;1.13;;;;;;;;;;5037337;28;20179;-79
2022/11/17 12:41:41;;;;;;;4.93;1.53;;;;;;;;;;5036845;28;20215;-77
2022/11/17 12:44:26;;;;;;;3.70;1.20;;;;;;;;;;5037403;28;20176;-77
2022/11/17 12:46:57;;;;;;;5.80;1.30;;;;;;;;;;5049498;28;20183;-86
2022/11/17 12:49:30;;;;;;;5.47;1.30;;;;;;;;;;5056365;28;20232;-86
2022/11/17 12:52:01;;;;;;;4.13;1.20;;;;;;;;;;5048210;28;20222;-86
2022/11/17 12:54:33;;;;;;;2.30;1.20;;;;;;;;;;5036498;28;20184;-85
2022/11/17 12:57:07;;;;;;;4.63;1.50;;;;;;;;;;5044734;28;20365;-86
2022/11/17 12:59:52;;;;;;;4.17;1.50;;;;;;;;;;5040838;28;20194;-86
2022/11/17 13:02:24;;;;;;;4.47;1.27;;;;;;;;;;5036900;28;20214;-79
2022/11/17 13:04:54;;;;;;;2.73;1.27;;;;;;;;;;5048946;28;20180;-79
2022/11/17 13:07:24;;;;;;;4.57;1.43;;;;;;;;;;5074180;28;20178;-79
2022/11/17 13:09:57;;;;;;;5.63;1.50;;;;;;;;;;5074389;28;20183;-80
2022/11/17 13:12:25;;;;;;;3.80;1.17;;;;;;;;;;5055911;28;20313;-80
2022/11/17 13:14:53;;;;;;;3.00;1.27;;;;;;;;;;5073848;28;20175;-80
2022/11/17 13:17:21;;;;;;;3.73;1.57;;;;;;;;;;5074024;28;20268;-81
2022/11/17 13:19:47;;;;;;;4.10;1.27;;;;;;;;;;5056325;28;20186;-80
2022/11/17 13:22:17;;;;;;;3.37;1.50;;;;;;;;;;5042444;28;20219;-80
2022/11/17 13:24:45;;;;;;;6.00;1.40;;;;;;;;;;5055049;28;20168;-80
2022/11/17 13:27:23;;;;;;;4.93;1.30;;;;;;;;;;5040465;28;20184;-80
2022/11/17 13:29:49;;;;;;;5.73;1.30;;;;;;;;;;5040460;28;20175;-80
2022/11/17 13:32:20;;;;;;;4.93;1.40;;;;;;;;;;5041274;28;20238;-80
2022/11/17 13:34:48;;;;;;;3.83;1.23;;;;;;;;;;5065940;28;20209;-78
2022/11/17 13:37:15;;;;;;;3.80;1.33;;;;;;;;;;5060313;28;20179;-78
2022/11/17 13:39:52;;;;;;;4.77;1.30;;;;;;;;;;5077956;28;20178;-85
2022/11/17 13:42:20;;;;;;;5.07;1.43;;;;;;;;;;5059855;28;20245;-85
2022/11/17 13:44:47;;;;;;;3.80;1.27;;;;;;;;;;5043510;28;20198;-79
2022/11/17 13:47:19;;;;;;;3.20;1.30;;;;;;;;;;5043729;28;20179;-79
2022/11/17 13:49:46;;;;;;;5.07;1.20;;;;;;;;;;5077522;28;20215;-79
2022/11/17 13:52:51;;;;;;;4.30;1.23;;;;;;;;;;5060307;28;20188;-85
2022/11/17 13:55:19;;;;;;;1.93;1.20;;;;;;;;;;5059681;28;20175;-86
2022/11/17 13:58:02;;;;;;;5.87;1.67;;;;;;;;;;5059190;28;20219;-86
2022/11/17 14:00:33;;;;;;;5.40;1.50;;;;;;;;;;5057614;28;20308;-86
2022/11/17 14:03:30;;;;;;;5.00;1.30;;;;;;;;;;5060117;28;20175;-87
2022/11/17 14:06:01;;;;;;;2.20;1.23;;;;;;;;;;5060588;28;20171;-87
2022/11/17 14:08:30;;;;;;;5.20;1.60;;;;;;;;;;5059221;28;20180;-80
2022/11/17 14:11:06;;;;;;;3.70;1.30;;;;;;;;;;5057707;28;20206;-79
2022/11/17 14:13:37;;;;;;;6.63;1.50;;;;;;;;;;5039577;28;20218;-80
2022/11/17 14:16:03;;;;;;;4.27;1.30;;;;;;;;;;5073120;28;20187;-80
2022/11/17 14:18:36;;;;;;;3.27;1.37;;;;;;;;;;5039340;28;20183;-79
2022/11/17 14:21:06;;;;;;;7.23;1.80;;;;;;;;;;5055321;28;20203;-79
2022/11/17 14:23:32;;;;;;;4.37;1.60;;;;;;;;;;5055915;28;20199;-79
2022/11/17 14:25:58;;;;;;;4.33;1.70;;;;;;;;;;5040663;28;20187;-79
2022/11/17 14:28:25;;;;;;;4.43;1.43;;;;;;;;;;5057045;28;20183;-79
2022/11/17 14:30:55;;;;;;;3.30;1.50;;;;;;;;;;5032354;28;20196;-79
2022/11/17 14:33:21;;;;;;;5.43;1.63;;;;;;;;;;5057258;28;20183;-80
2022/11/17 14:35:52;;;;;;;3.57;1.40;;;;;;;;;;5058482;28;20190;-80
2022/11/17 14:38:19;;;;;;;4.23;1.50;;;;;;;;;;5039102;28;20183;-80
2022/11/17 14:40:45;;;;;;;3.70;1.60;;;;;;;;;;5039291;28;20212;-80
2022/11/17 14:43:11;;;;;;;5.23;1.47;;;;;;;;;;5071436;28;20175;-77
2022/11/17 14:45:37;;;;;;;2.37;1.40;;;;;;;;;;5057392;28;20198;-78
2022/11/17 14:48:06;;;;;;;6.23;1.80;;;;;;;;;;5041880;28;20187;-78
2022/11/17 14:50:33;;;;;;;7.43;1.40;;;;;;;;;;5074907;28;20199;-78
2022/11/17 14:52:59;;;;;;;2.17;1.20;;;;;;;;;;5057438;28;20179;-77
2022/11/17 14:55:25;;;;;;;4.43;1.40;;;;;;;;;;5051919;28;20176;-77
2022/11/17 14:57:51;;;;;;;4.40;1.30;;;;;;;;;;5031357;28;20227;-78
2022/11/17 15:00:18;;;;;;;4.10;1.30;;;;;;;;;;5073569;28;20230;-80
2022/11/17 15:02:44;;;;;;;3.80;1.40;;;;;;;;;;5076320;28;20171;-81
2022/11/17 15:05:10;;;;;;;3.80;1.30;;;;;;;;;;5058649;28;20225;-80
2022/11/17 15:07:37;;;;;;;3.43;1.30;;;;;;;;;;5076468;28;20184;-81
2022/11/17 15:10:03;;;;;;;4.87;1.40;;;;;;;;;;5040209;28;20187;-80
2022/11/17 15:12:29;;;;;;;2.23;1.30;;;;;;;;;;5041907;28;20187;-81
2022/11/17 15:14:58;;;;;;;2.47;1.40;;;;;;;;;;5057240;28;20192;-87
2022/11/17 15:17:25;;;;;;;3.03;0.87;;;;;;;;;;5058393;28;20190;-87
2022/11/17 15:19:51;;;;;;;4.33;1.27;;;;;;;;;;5041910;28;20183;-87
2022/11/17 15:22:17;;;;;;;3.27;1.33;;;;;;;;;;5057943;28;20245;-87